createdAt,value
2023-01-31T00:01:58.935Z,4.05
2023-01-31T00:04:26.885Z,5.15
2023-01-31T00:06:54.726Z,4.03
2023-01-31T00:09:22.785Z,4.35
2023-01-31T00:11:51.965Z,3.20
2023-01-31T00:14:21.526Z,3.67
2023-01-31T00:16:49.418Z,4.18
2023-01-31T00:19:17.714Z,3.75
2023-01-31T00:21:45.817Z,4.07
2023-01-31T00:24:14.342Z,4.32
2023-01-31T00:26:42.603Z,3.55
2023-01-31T00:29:11.973Z,3.92
2023-01-31T00:31:40.270Z,4.00
2023-01-31T00:34:08.555Z,4.50
2023-01-31T00:36:37.785Z,3.60
2023-01-31T00:39:07.688Z,3.63
2023-01-31T00:41:37.520Z,3.80
2023-01-31T00:44:07.497Z,4.10
2023-01-31T00:46:37.078Z,3.95
2023-01-31T00:49:05.381Z,4.18
2023-01-31T00:51:33.732Z,4.30
2023-01-31T00:54:01.623Z,4.28
2023-01-31T00:56:29.640Z,3.80
2023-01-31T00:58:57.511Z,3.83
2023-01-31T01:01:27.265Z,4.03
2023-01-31T01:03:57.966Z,4.55
2023-01-31T01:06:26.278Z,3.70
2023-01-31T01:08:55.247Z,4.78
2023-01-31T01:11:25.863Z,4.50
2023-01-31T01:13:54.258Z,4.22
2023-01-31T01:16:24.601Z,4.28
2023-01-31T01:18:55.081Z,4.35
2023-01-31T01:21:26.453Z,4.45
2023-01-31T01:23:56.882Z,4.10
2023-01-31T01:26:26.998Z,4.38
2023-01-31T01:28:56.931Z,4.47
2023-01-31T01:31:30.423Z,3.90
2023-01-31T01:34:00.120Z,4.53
2023-01-31T01:36:29.508Z,4.60
2023-01-31T01:38:57.883Z,4.53
2023-01-31T01:41:25.813Z,4.78
2023-01-31T01:43:55.148Z,3.92
2023-01-31T01:46:28.315Z,4.15
2023-01-31T01:51:29.977Z,4.80
2023-01-31T01:54:01.335Z,4.30
2023-01-31T01:56:33.994Z,4.20
2023-01-31T01:59:05.788Z,3.85
2023-01-31T02:01:36.610Z,4.20
2023-01-31T02:04:14.853Z,4.82
2023-01-31T02:06:45.743Z,4.55
2023-01-31T02:09:23.093Z,4.35
2023-01-31T02:11:51.639Z,4.10
2023-01-31T02:14:22.734Z,4.25
2023-01-31T02:16:50.755Z,4.93
2023-01-31T02:19:25.655Z,3.92
2023-01-31T02:22:08.101Z,4.28
2023-01-31T02:25:13.901Z,3.95
2023-01-31T02:28:09.311Z,4.38
2023-01-31T02:30:56.232Z,3.60
2023-01-31T02:33:30.846Z,3.92
2023-01-31T02:36:08.768Z,3.90
2023-01-31T02:38:58.888Z,4.65
2023-01-31T02:41:34.024Z,4.60
2023-01-31T02:44:31.942Z,4.60
2023-01-31T02:47:08.607Z,4.20
2023-01-31T02:49:42.419Z,4.55
2023-01-31T02:52:21.727Z,4.10
2023-01-31T02:55:20.985Z,4.68
2023-01-31T02:57:51.975Z,4.18
2023-01-31T03:00:21.981Z,4.03
2023-01-31T03:02:49.985Z,4.63
2023-01-31T03:05:20.697Z,3.85
2023-01-31T03:07:51.267Z,4.30
2023-01-31T03:10:41.372Z,3.97
2023-01-31T03:13:26.563Z,4.47
2023-01-31T03:16:21.359Z,4.15
2023-01-31T03:19:00.092Z,3.70
2023-01-31T03:21:34.686Z,3.60
2023-01-31T03:24:05.896Z,3.63
2023-01-31T03:26:36.580Z,3.88
2023-01-31T03:29:07.642Z,3.92
2023-01-31T03:31:40.684Z,4.05
2023-01-31T03:34:11.492Z,4.10
2023-01-31T03:36:47.439Z,3.85
2023-01-31T03:39:37.532Z,3.85
2023-01-31T03:42:09.576Z,3.92
2023-01-31T03:44:45.131Z,3.78
2023-01-31T03:47:18.337Z,3.63
2023-01-31T03:52:23.283Z,4.32
2023-01-31T03:54:56.078Z,4.00
2023-01-31T03:57:27.389Z,3.70
2023-01-31T04:00:00.202Z,4.13
2023-01-31T04:02:33.009Z,4.28
2023-01-31T04:05:07.860Z,3.67
2023-01-31T04:07:39.514Z,3.95
2023-01-31T04:10:14.194Z,3.80
2023-01-31T04:12:42.437Z,4.03
2023-01-31T04:15:11.426Z,4.25
2023-01-31T04:17:39.502Z,4.35
2023-01-31T04:20:09.979Z,4.47
2023-01-31T04:22:39.329Z,3.78
2023-01-31T04:25:08.346Z,4.68
2023-01-31T04:27:37.022Z,3.53
2023-01-31T04:30:06.189Z,4.22
2023-01-31T04:32:34.194Z,3.95
2023-01-31T04:35:02.590Z,4.28
2023-01-31T04:37:30.714Z,4.43
2023-01-31T04:39:59.904Z,4.38
2023-01-31T04:42:27.887Z,4.00
2023-01-31T04:44:55.727Z,4.47
2023-01-31T04:47:23.590Z,3.70
2023-01-31T04:49:51.480Z,4.05
2023-01-31T04:52:19.355Z,4.30
2023-01-31T04:54:47.281Z,4.68
2023-01-31T04:57:16.499Z,4.28
2023-01-31T04:59:44.455Z,4.05
2023-01-31T05:02:15.019Z,4.05
2023-01-31T05:04:42.895Z,3.47
2023-01-31T05:07:10.849Z,3.90
2023-01-31T05:09:38.908Z,4.70
2023-01-31T05:12:07.909Z,4.43
2023-01-31T05:14:37.375Z,4.47
2023-01-31T05:17:05.787Z,4.68
2023-01-31T05:19:33.677Z,4.35
2023-01-31T05:22:01.582Z,4.32
2023-01-31T05:24:31.796Z,4.03
2023-01-31T05:27:02.419Z,4.32
2023-01-31T05:29:32.835Z,4.18
2023-01-31T05:32:03.784Z,4.22
2023-01-31T05:34:33.197Z,4.05
2023-01-31T05:37:01.231Z,4.57
2023-01-31T05:39:29.544Z,4.03
2023-01-31T05:41:57.448Z,4.30
2023-01-31T05:44:25.616Z,4.22
2023-01-31T05:46:53.597Z,3.90
2023-01-31T05:49:32.641Z,4.68
2023-01-31T05:52:00.970Z,4.68
2023-01-31T05:54:29.256Z,3.80
2023-01-31T05:56:57.188Z,4.10
2023-01-31T05:59:26.373Z,3.80
2023-01-31T06:01:54.510Z,4.30
2023-01-31T06:04:23.820Z,4.60
2023-01-31T06:06:51.690Z,4.75
2023-01-31T06:09:19.547Z,4.25
2023-01-31T06:11:47.390Z,3.80
2023-01-31T06:14:15.263Z,3.25
2023-01-31T06:16:43.193Z,3.92
2023-01-31T06:19:11.134Z,4.07
2023-01-31T06:21:40.341Z,4.18
2023-01-31T06:24:08.819Z,3.75
2023-01-31T06:26:38.275Z,4.35
2023-01-31T06:29:06.461Z,4.10
2023-01-31T06:31:34.396Z,4.35
2023-01-31T06:34:03.504Z,3.65
2023-01-31T06:36:34.026Z,3.70
2023-01-31T06:39:04.075Z,4.03
2023-01-31T06:41:31.990Z,3.83
2023-01-31T06:43:59.865Z,3.17
2023-01-31T06:46:27.824Z,3.63
2023-01-31T06:48:55.828Z,3.88
2023-01-31T06:51:23.728Z,3.67
2023-01-31T06:53:52.984Z,3.17
2023-01-31T06:56:22.195Z,2.85
2023-01-31T06:58:50.410Z,3.08
2023-01-31T07:01:18.343Z,3.53
2023-01-31T07:03:46.265Z,3.60
2023-01-31T07:06:14.206Z,3.47
2023-01-31T07:08:42.100Z,4.13
2023-01-31T07:11:09.948Z,3.75
2023-01-31T07:13:39.147Z,3.70
2023-01-31T07:16:07.525Z,4.07
2023-01-31T07:18:35.438Z,3.33
2023-01-31T07:21:03.375Z,3.42
2023-01-31T07:23:31.431Z,4.13
2023-01-31T07:26:02.074Z,3.65
2023-01-31T07:28:30.048Z,4.18
2023-01-31T07:31:05.538Z,3.85
2023-01-31T07:33:34.253Z,3.30
2023-01-31T07:36:04.429Z,3.45
2023-01-31T07:38:35.751Z,3.38
2023-01-31T07:41:05.471Z,3.25
2023-01-31T07:43:33.738Z,3.83
2023-01-31T07:46:03.205Z,3.45
2023-01-31T07:48:31.094Z,3.58
2023-01-31T07:51:01.510Z,4.07
2023-01-31T07:53:31.802Z,3.78
2023-01-31T07:56:07.237Z,3.90
2023-01-31T07:58:36.539Z,3.15
2023-01-31T08:01:23.475Z,3.60
2023-01-31T08:03:51.712Z,3.58
2023-01-31T08:06:20.247Z,3.53
2023-01-31T08:08:48.174Z,3.65
2023-01-31T08:11:16.062Z,4.00
2023-01-31T08:13:44.052Z,3.08
2023-01-31T08:16:13.359Z,3.75
2023-01-31T08:18:41.288Z,3.00
2023-01-31T08:21:12.756Z,3.00
2023-01-31T08:23:41.130Z,3.30
2023-01-31T08:26:12.433Z,2.97
2023-01-31T08:28:40.915Z,3.53
2023-01-31T08:31:15.498Z,3.55
2023-01-31T08:33:43.505Z,3.22
2023-01-31T08:36:13.220Z,2.92
2023-01-31T08:38:42.110Z,3.13
2023-01-31T08:41:10.105Z,3.05
2023-01-31T08:43:53.674Z,2.78
2023-01-31T08:46:25.299Z,2.97
2023-01-31T08:48:53.339Z,3.10
2023-01-31T08:51:21.207Z,3.25
2023-01-31T08:53:49.152Z,3.10
2023-01-31T08:56:17.603Z,3.00
2023-01-31T08:58:45.929Z,2.63
2023-01-31T09:01:15.894Z,2.90
2023-01-31T09:03:46.114Z,3.15
2023-01-31T09:06:16.497Z,3.38
2023-01-31T09:08:44.367Z,2.95
2023-01-31T09:11:17.030Z,2.60
2023-01-31T09:13:45.275Z,2.92
2023-01-31T09:16:14.907Z,3.10
2023-01-31T09:18:44.721Z,2.50
2023-01-31T09:21:15.174Z,2.90
2023-01-31T09:23:43.409Z,3.33
2023-01-31T09:26:12.636Z,3.10
2023-01-31T09:28:42.660Z,2.60
2023-01-31T09:31:12.816Z,2.55
2023-01-31T09:33:41.218Z,2.90
2023-01-31T09:36:12.374Z,2.40
2023-01-31T09:38:40.390Z,2.65
2023-01-31T09:41:19.965Z,2.53
2023-01-31T09:43:52.812Z,2.92
2023-01-31T09:46:24.911Z,2.58
2023-01-31T09:48:55.789Z,2.83
2023-01-31T09:51:25.295Z,2.38
2023-01-31T09:53:54.429Z,2.88
2023-01-31T09:56:30.945Z,2.83
2023-01-31T09:59:08.019Z,2.75
2023-01-31T10:01:44.826Z,2.50
2023-01-31T10:04:31.718Z,2.95
2023-01-31T10:07:06.550Z,2.75
2023-01-31T10:09:39.219Z,2.83
2023-01-31T10:12:14.230Z,2.90
2023-01-31T10:14:47.740Z,2.17
2023-01-31T10:17:20.904Z,3.30
2023-01-31T10:19:54.347Z,2.35
2023-01-31T10:22:30.836Z,2.25
2023-01-31T10:25:03.363Z,2.28
2023-01-31T10:27:44.800Z,2.30
2023-01-31T10:30:19.515Z,2.03
2023-01-31T10:32:52.335Z,3.38
2023-01-31T10:35:25.491Z,2.58
2023-01-31T10:37:58.689Z,2.83
2023-01-31T10:43:04.101Z,2.25
2023-01-31T10:45:34.078Z,2.13
2023-01-31T10:48:15.143Z,2.53
2023-01-31T10:50:53.197Z,2.33
2023-01-31T10:53:42.097Z,2.28
2023-01-31T10:56:14.396Z,2.60
2023-01-31T10:58:42.488Z,2.17
2023-01-31T11:01:12.160Z,2.58
2023-01-31T11:03:50.570Z,2.30
2023-01-31T11:06:19.669Z,3.13
2023-01-31T11:08:51.486Z,3.00
2023-01-31T11:11:21.022Z,3.05
2023-01-31T11:13:58.549Z,2.63
2023-01-31T11:16:27.960Z,2.53
2023-01-31T11:18:56.344Z,3.40
2023-01-31T11:21:27.212Z,2.78
2023-01-31T11:24:03.120Z,2.72
2023-01-31T11:26:34.961Z,2.78
2023-01-31T11:29:07.023Z,2.83
2023-01-31T11:31:39.565Z,2.30
2023-01-31T11:34:21.254Z,2.38
2023-01-31T11:36:49.550Z,3.03
2023-01-31T11:39:31.903Z,2.72
2023-01-31T11:42:07.321Z,3.10
2023-01-31T11:44:36.667Z,2.97
2023-01-31T11:47:13.920Z,2.90
2023-01-31T11:49:44.162Z,3.20
2023-01-31T11:52:17.796Z,3.38
2023-01-31T11:54:49.850Z,3.28
2023-01-31T11:57:23.008Z,3.30
2023-01-31T11:59:52.867Z,3.58
2023-01-31T12:02:37.021Z,3.38
2023-01-31T12:05:11.396Z,3.67
2023-01-31T12:07:45.507Z,2.75
2023-01-31T12:10:34.372Z,3.50
2023-01-31T12:13:17.900Z,3.30
2023-01-31T12:15:51.027Z,3.30
2023-01-31T12:18:28.861Z,2.83
2023-01-31T12:21:04.754Z,3.55
2023-01-31T12:23:40.695Z,3.20
2023-01-31T12:26:16.277Z,3.05
2023-01-31T12:28:59.486Z,3.45
2023-01-31T12:31:43.520Z,2.65
2023-01-31T12:34:30.599Z,3.60
2023-01-31T12:37:12.359Z,3.40
2023-01-31T12:39:54.923Z,4.00
2023-01-31T12:42:51.871Z,2.95
2023-01-31T12:45:31.691Z,3.55
2023-01-31T12:48:27.819Z,3.53
2023-01-31T12:51:03.235Z,4.10
2023-01-31T12:53:47.358Z,3.50
2023-01-31T12:56:39.977Z,4.20
2023-01-31T12:59:24.328Z,3.75
2023-01-31T13:01:58.402Z,3.55
2023-01-31T13:04:34.739Z,3.33
2023-01-31T13:07:06.775Z,3.92
2023-01-31T13:09:36.684Z,3.78
2023-01-31T13:12:09.955Z,3.53
2023-01-31T13:17:13.182Z,3.70
2023-01-31T13:19:46.706Z,4.07
2023-01-31T13:22:20.155Z,4.00
2023-01-31T13:24:52.905Z,4.30
2023-01-31T13:27:25.707Z,4.10
2023-01-31T13:30:01.425Z,4.80
2023-01-31T13:32:34.205Z,4.25
2023-01-31T13:35:06.098Z,4.30
2023-01-31T13:37:40.187Z,4.03
2023-01-31T13:40:20.048Z,3.67
2023-01-31T13:42:48.167Z,4.50
2023-01-31T13:45:24.904Z,4.63
2023-01-31T13:47:57.268Z,4.43
2023-01-31T13:50:36.042Z,4.07
2023-01-31T13:53:08.208Z,4.05
2023-01-31T13:55:40.124Z,3.92
2023-01-31T13:58:16.291Z,4.75
2023-01-31T14:00:47.907Z,5.20
2023-01-31T14:03:18.305Z,4.22
2023-01-31T14:05:55.237Z,4.72
2023-01-31T14:08:59.477Z,4.47
2023-01-31T14:11:35.935Z,4.70
2023-01-31T14:14:30.780Z,4.40
2023-01-31T14:17:00.101Z,3.90
2023-01-31T14:19:57.751Z,4.45
2023-01-31T14:22:33.298Z,4.80
2023-01-31T14:25:04.462Z,4.32
2023-01-31T14:27:44.140Z,4.60
2023-01-31T14:30:27.721Z,4.30
2023-01-31T14:36:14.542Z,4.28
2023-01-31T14:38:56.534Z,5.20
2023-01-31T14:41:35.616Z,4.15
2023-01-31T14:44:18.801Z,4.03
2023-01-31T14:47:12.096Z,4.57
2023-01-31T14:50:06.991Z,4.28
2023-01-31T14:52:52.839Z,4.22
2023-01-31T14:55:46.509Z,3.70
2023-01-31T14:58:21.273Z,3.88
2023-01-31T15:00:51.583Z,4.15
2023-01-31T15:03:22.609Z,3.92
2023-01-31T15:05:55.628Z,4.78
2023-01-31T15:08:43.784Z,3.65
2023-01-31T15:11:41.426Z,4.20
2023-01-31T15:14:36.005Z,3.65
2023-01-31T15:17:31.605Z,3.75
2023-01-31T15:20:15.447Z,3.70
2023-01-31T15:22:46.624Z,3.33
2023-01-31T15:25:24.540Z,3.72
2023-01-31T15:27:54.909Z,4.05
2023-01-31T15:30:25.680Z,3.42
2023-01-31T15:32:57.616Z,3.67
2023-01-31T15:35:29.625Z,4.50
2023-01-31T15:38:04.317Z,3.72
2023-01-31T15:40:32.746Z,6.97
2023-01-31T15:43:19.050Z,6.03
2023-01-31T15:45:51.410Z,7.22
2023-01-31T15:48:20.871Z,6.20
2023-01-31T15:50:54.268Z,3.85
2023-01-31T15:53:25.837Z,3.13
2023-01-31T15:55:58.380Z,4.15
2023-01-31T15:58:29.038Z,3.80
2023-01-31T16:00:59.549Z,3.65
2023-01-31T16:03:29.629Z,3.80
2023-01-31T16:05:58.945Z,4.32
2023-01-31T16:08:31.240Z,3.95
2023-01-31T16:10:59.709Z,3.75
2023-01-31T16:13:31.358Z,3.60
2023-01-31T16:15:59.851Z,3.28
2023-01-31T16:18:28.393Z,3.67
2023-01-31T16:20:57.778Z,3.55
2023-01-31T16:23:32.977Z,3.47
2023-01-31T16:26:07.216Z,3.75
2023-01-31T16:28:40.276Z,4.00
2023-01-31T16:31:10.484Z,3.92
2023-01-31T16:33:40.155Z,3.45
2023-01-31T16:36:15.186Z,3.90
2023-01-31T16:38:57.391Z,4.10
2023-01-31T16:41:43.633Z,3.88
2023-01-31T16:44:16.781Z,3.15
2023-01-31T16:49:21.365Z,3.13
2023-01-31T16:51:50.747Z,3.45
2023-01-31T16:54:22.969Z,3.58
2023-01-31T16:57:07.996Z,2.95
2023-01-31T16:59:58.538Z,3.10
2023-01-31T17:02:30.035Z,3.20
2023-01-31T17:05:01.014Z,3.08
2023-01-31T17:07:31.166Z,3.55
2023-01-31T17:10:02.747Z,5.50
2023-01-31T17:12:32.104Z,3.95
2023-01-31T17:15:03.322Z,5.60
2023-01-31T17:17:34.216Z,5.22
2023-01-31T17:20:02.120Z,5.82
2023-01-31T17:22:30.462Z,3.97
2023-01-31T17:24:59.708Z,4.07
2023-01-31T17:27:27.703Z,4.22
2023-01-31T17:29:55.600Z,4.15
2023-01-31T17:32:23.467Z,4.10
2023-01-31T17:34:51.380Z,3.50
2023-01-31T17:37:26.773Z,4.28
2023-01-31T17:40:01.448Z,4.28
2023-01-31T17:42:29.360Z,3.88
2023-01-31T17:44:57.437Z,3.75
2023-01-31T17:47:26.973Z,5.25
2023-01-31T17:49:55.455Z,4.85
2023-01-31T17:52:23.341Z,3.97
2023-01-31T17:54:51.396Z,4.63
2023-01-31T17:57:20.675Z,3.88
2023-01-31T17:59:48.530Z,3.80
2023-01-31T18:02:16.423Z,3.90
2023-01-31T18:04:44.288Z,4.43
2023-01-31T18:07:16.637Z,4.47
2023-01-31T18:09:45.572Z,4.10
2023-01-31T18:12:13.509Z,4.43
2023-01-31T18:14:42.896Z,4.32
2023-01-31T18:17:10.829Z,3.85
2023-01-31T18:19:38.818Z,4.30
2023-01-31T18:22:06.717Z,4.05
2023-01-31T18:24:34.762Z,4.13
2023-01-31T18:27:02.648Z,5.18
2023-01-31T18:29:30.840Z,4.25
2023-01-31T18:32:02.562Z,4.50
2023-01-31T18:34:30.852Z,4.70
2023-01-31T18:36:58.767Z,4.35
2023-01-31T18:39:26.652Z,4.07
2023-01-31T18:41:54.697Z,4.25
2023-01-31T18:44:22.614Z,4.10
2023-01-31T18:46:50.569Z,4.00
2023-01-31T18:49:21.248Z,4.07
2023-01-31T18:51:49.723Z,3.97
2023-01-31T18:54:17.677Z,4.05
2023-01-31T18:56:45.647Z,3.80
2023-01-31T18:59:13.566Z,3.63
2023-01-31T19:01:43.455Z,3.42
2023-01-31T19:04:11.652Z,3.60
2023-01-31T19:06:41.829Z,4.10
2023-01-31T19:09:10.422Z,3.95
2023-01-31T19:11:38.331Z,3.92
2023-01-31T19:14:07.863Z,3.42
2023-01-31T19:16:40.165Z,3.90
2023-01-31T19:19:09.144Z,3.67
2023-01-31T19:21:38.406Z,3.70
2023-01-31T19:24:11.015Z,4.13
2023-01-31T19:26:38.922Z,4.25
2023-01-31T19:29:09.674Z,3.72
2023-01-31T19:31:37.899Z,3.75
2023-01-31T19:34:06.905Z,3.92
2023-01-31T19:36:36.897Z,4.13
2023-01-31T19:39:07.775Z,4.25
2023-01-31T19:41:35.971Z,4.20
2023-01-31T19:44:04.862Z,3.58
2023-01-31T19:46:35.663Z,3.83
2023-01-31T19:49:04.030Z,3.60
2023-01-31T19:51:32.423Z,3.90
2023-01-31T19:54:02.706Z,2.97
2023-01-31T19:56:32.883Z,3.17
2023-01-31T19:59:01.258Z,3.33
2023-01-31T20:01:29.157Z,3.28
2023-01-31T20:03:57.069Z,3.13
2023-01-31T20:06:27.428Z,3.38
2023-01-31T20:08:57.029Z,3.95
2023-01-31T20:11:25.929Z,3.38
2023-01-31T20:13:57.684Z,3.55
2023-01-31T20:16:25.688Z,3.63
2023-01-31T20:18:55.393Z,3.60
2023-01-31T20:21:23.828Z,3.90
2023-01-31T20:23:51.811Z,3.33
2023-01-31T20:26:20.806Z,3.72
2023-01-31T20:28:49.366Z,3.95
2023-01-31T20:31:19.404Z,3.60
2023-01-31T20:33:47.375Z,3.33
2023-01-31T20:36:15.275Z,3.42
2023-01-31T20:38:43.187Z,3.20
2023-01-31T20:41:11.354Z,3.10
2023-01-31T20:43:39.311Z,3.67
2023-01-31T20:46:08.881Z,3.20
2023-01-31T20:48:38.514Z,3.10
2023-01-31T20:51:07.055Z,3.08
2023-01-31T20:53:35.803Z,2.28
2023-01-31T20:56:05.911Z,2.40
2023-01-31T20:58:36.249Z,2.85
2023-01-31T21:01:06.469Z,2.70
2023-01-31T21:03:35.527Z,2.47
2023-01-31T21:06:05.644Z,2.78
2023-01-31T21:08:35.289Z,3.00
2023-01-31T21:11:06.477Z,3.10
2023-01-31T21:13:34.439Z,2.97
2023-01-31T21:16:04.622Z,2.58
2023-01-31T21:18:44.053Z,3.05
2023-01-31T21:21:23.197Z,3.00
2023-01-31T21:23:52.259Z,2.72
2023-01-31T21:26:21.704Z,3.05
2023-01-31T21:28:50.014Z,2.40
2023-01-31T21:31:20.362Z,2.63
2023-01-31T21:33:50.254Z,3.17
2023-01-31T21:36:21.700Z,2.55
2023-01-31T21:38:49.713Z,3.47
2023-01-31T21:41:35.960Z,3.10
2023-01-31T21:44:04.499Z,3.20
2023-01-31T21:46:32.490Z,3.67
2023-01-31T21:49:00.972Z,3.47
2023-01-31T21:51:30.270Z,3.33
2023-01-31T21:53:58.213Z,3.17
2023-01-31T21:56:27.750Z,2.90
2023-01-31T21:58:56.028Z,3.83
2023-01-31T22:01:25.810Z,3.38
2023-01-31T22:03:54.640Z,3.45
2023-01-31T22:06:25.666Z,3.65
2023-01-31T22:08:58.906Z,3.35
2023-01-31T22:11:28.505Z,3.42
2023-01-31T22:13:56.568Z,3.67
2023-01-31T22:16:24.458Z,3.97
2023-01-31T22:18:53.626Z,3.63
2023-01-31T22:21:24.932Z,3.70
2023-01-31T22:23:56.314Z,3.33
2023-01-31T22:26:26.581Z,3.55
2023-01-31T22:28:56.463Z,3.67
2023-01-31T22:31:25.093Z,4.35
2023-01-31T22:33:53.353Z,3.60
2023-01-31T22:36:21.709Z,3.33
2023-01-31T22:38:49.589Z,3.20
2023-01-31T22:41:20.191Z,3.97
2023-01-31T22:43:49.752Z,2.90
2023-01-31T22:46:20.174Z,3.60
2023-01-31T22:48:49.517Z,3.17
2023-01-31T22:51:19.314Z,3.40
2023-01-31T22:53:47.574Z,2.88
2023-01-31T22:56:18.510Z,3.50
2023-01-31T22:58:46.584Z,2.80
2023-01-31T23:01:16.463Z,3.60
2023-01-31T23:03:44.877Z,3.15
2023-01-31T23:06:14.034Z,2.97
2023-01-31T23:08:42.667Z,2.90
2023-01-31T23:11:12.009Z,3.25
2023-01-31T23:13:41.802Z,2.85
2023-01-31T23:16:11.744Z,3.03
2023-01-31T23:18:39.785Z,3.60
2023-01-31T23:21:08.418Z,3.10
2023-01-31T23:23:36.584Z,3.22
2023-01-31T23:26:05.242Z,3.15
2023-01-31T23:28:33.551Z,3.00
2023-01-31T23:31:03.119Z,2.80
2023-01-31T23:33:31.041Z,2.70
2023-01-31T23:35:58.928Z,2.85
2023-01-31T23:38:27.300Z,2.92
2023-01-31T23:40:55.673Z,2.95
2023-01-31T23:43:23.993Z,3.10
2023-01-31T23:45:52.232Z,2.60
2023-01-31T23:48:21.511Z,3.00
2023-01-31T23:50:49.380Z,3.15
2023-01-31T23:53:17.237Z,3.40
2023-01-31T23:55:45.760Z,3.35
2023-01-31T23:58:13.652Z,2.83
